createdAt,value
2023-05-05T00:02:54.923Z,15.78
2023-05-05T00:06:16.545Z,15.71
2023-05-05T00:09:38.157Z,15.64
2023-05-05T00:12:59.775Z,15.60
2023-05-05T00:16:23.324Z,15.64
2023-05-05T00:19:44.926Z,15.26
2023-05-05T00:23:06.915Z,15.25
2023-05-05T00:26:28.750Z,15.46
2023-05-05T00:29:50.529Z,15.33
2023-05-05T00:33:12.328Z,15.49
2023-05-05T00:36:34.407Z,15.49
2023-05-05T00:40:00.771Z,15.61
2023-05-05T00:43:22.435Z,15.35
2023-05-05T00:46:44.263Z,15.30
2023-05-05T00:50:10.913Z,15.23
2023-05-05T00:53:32.941Z,14.93
2023-05-05T00:56:56.840Z,14.79
2023-05-05T01:00:20.701Z,14.72
2023-05-05T01:03:42.432Z,14.45
2023-05-05T01:07:09.917Z,14.61
2023-05-05T01:10:40.597Z,14.40
2023-05-05T01:14:25.199Z,14.22
2023-05-05T01:17:56.045Z,14.27
2023-05-05T01:21:31.320Z,14.37
2023-05-05T01:25:17.952Z,14.24
2023-05-05T01:29:09.375Z,14.05
2023-05-05T01:32:36.260Z,14.03
2023-05-05T01:36:05.933Z,14.12
2023-05-05T01:39:33.500Z,14.12
2023-05-05T01:42:59.449Z,14.10
2023-05-05T01:46:23.692Z,14.14
2023-05-05T01:49:47.306Z,13.85
2023-05-05T01:53:12.783Z,13.82
2023-05-05T01:56:39.148Z,13.83
2023-05-05T02:00:04.256Z,13.86
2023-05-05T02:03:29.002Z,13.74
2023-05-05T02:06:53.312Z,13.59
2023-05-05T02:10:15.695Z,13.38
2023-05-05T02:13:42.201Z,13.30
2023-05-05T02:17:07.563Z,13.59
2023-05-05T02:20:32.394Z,13.34
2023-05-05T02:23:54.111Z,13.21
2023-05-05T02:27:18.816Z,13.18
2023-05-05T02:30:42.104Z,13.20
2023-05-05T02:34:07.331Z,13.55
2023-05-05T02:37:31.035Z,13.45
2023-05-05T02:40:55.862Z,13.23
2023-05-05T02:44:19.881Z,13.38
2023-05-05T02:47:46.852Z,13.54
2023-05-05T02:51:12.988Z,13.58
2023-05-05T02:54:34.688Z,13.21
2023-05-05T02:57:59.155Z,13.31
2023-05-05T03:01:32.250Z,13.16
2023-05-05T03:05:00.913Z,12.99
2023-05-05T03:08:42.041Z,12.79
2023-05-05T03:12:10.136Z,12.89
2023-05-05T03:15:41.828Z,12.90
2023-05-05T03:19:05.390Z,12.92
2023-05-05T03:22:35.789Z,13.09
2023-05-05T03:26:04.963Z,13.06
2023-05-05T03:29:30.189Z,13.26
2023-05-05T03:32:51.868Z,13.09
2023-05-05T03:36:13.547Z,13.06
2023-05-05T03:39:37.219Z,13.16
2023-05-05T03:42:58.807Z,12.95
2023-05-05T03:46:20.539Z,13.21
2023-05-05T03:49:42.535Z,13.33
2023-05-05T03:53:04.090Z,13.43
2023-05-05T03:56:25.777Z,13.33
2023-05-05T03:59:49.571Z,13.34
2023-05-05T04:03:11.687Z,13.41
2023-05-05T04:06:35.707Z,13.26
2023-05-05T04:09:57.313Z,13.04
2023-05-05T04:13:18.974Z,13.07
2023-05-05T04:16:42.844Z,13.11
2023-05-05T04:20:04.757Z,13.34
2023-05-05T04:23:29.017Z,13.26
2023-05-05T04:26:53.372Z,13.41
2023-05-05T04:30:17.233Z,13.64
2023-05-05T04:33:41.783Z,13.81
2023-05-05T04:37:08.203Z,13.93
2023-05-05T04:40:29.807Z,13.74
2023-05-05T04:43:51.428Z,13.76
2023-05-05T04:47:17.686Z,13.79
2023-05-05T04:50:41.672Z,13.78
2023-05-05T04:54:04.142Z,13.89
2023-05-05T04:57:26.094Z,13.95
2023-05-05T05:00:47.675Z,14.02
2023-05-05T05:04:10.641Z,14.17
2023-05-05T05:07:32.243Z,14.27
2023-05-05T05:10:53.917Z,14.31
2023-05-05T05:14:15.545Z,14.31
2023-05-05T05:17:39.862Z,14.31
2023-05-05T05:21:06.298Z,14.60
2023-05-05T05:24:30.210Z,14.93
2023-05-05T05:28:05.748Z,15.12
2023-05-05T05:31:31.258Z,15.27
2023-05-05T05:34:52.821Z,15.50
2023-05-05T05:38:14.576Z,15.54
2023-05-05T05:41:38.365Z,15.57
2023-05-05T05:44:59.936Z,15.74
2023-05-05T05:48:24.813Z,15.80
2023-05-05T05:51:48.974Z,15.85
2023-05-05T05:55:13.272Z,16.09
2023-05-05T05:58:35.680Z,16.36
2023-05-05T06:01:57.343Z,16.64
2023-05-05T06:05:18.966Z,16.79
2023-05-05T06:08:40.642Z,16.80
2023-05-05T06:12:04.958Z,16.98
2023-05-05T06:15:29.027Z,17.34
2023-05-05T06:18:50.665Z,17.49
2023-05-05T06:22:12.246Z,17.25
2023-05-05T06:25:36.431Z,17.29
2023-05-05T06:29:00.220Z,17.01
2023-05-05T06:32:21.878Z,16.98
2023-05-05T06:35:43.508Z,17.48
2023-05-05T06:39:05.112Z,17.83
2023-05-05T06:42:26.693Z,18.18
2023-05-05T06:45:48.645Z,18.45
2023-05-05T06:49:10.306Z,18.55
2023-05-05T06:52:32.138Z,18.32
2023-05-05T06:55:55.999Z,18.47
2023-05-05T06:59:19.883Z,18.80
2023-05-05T07:02:44.192Z,18.92
2023-05-05T07:06:06.052Z,18.27
2023-05-05T07:09:27.640Z,18.21
2023-05-05T07:12:49.773Z,18.59
2023-05-05T07:16:13.893Z,19.37
2023-05-05T07:19:37.846Z,18.42
2023-05-05T07:22:59.412Z,18.10
2023-05-05T07:26:21.056Z,18.66
2023-05-05T07:29:42.765Z,19.39
2023-05-05T07:33:04.400Z,20.09
2023-05-05T07:36:32.250Z,20.03
2023-05-05T07:39:56.196Z,20.52
2023-05-05T07:43:20.024Z,20.57
2023-05-05T07:46:41.807Z,20.57
2023-05-05T07:50:06.739Z,20.99
2023-05-05T07:53:29.478Z,20.87
2023-05-05T07:56:54.069Z,21.00
2023-05-05T08:00:19.539Z,21.37
2023-05-05T08:03:41.522Z,21.37
2023-05-05T08:07:03.357Z,21.51
2023-05-05T08:10:27.442Z,21.74
2023-05-05T08:13:51.417Z,20.44
2023-05-05T08:17:17.553Z,20.43
2023-05-05T08:20:39.189Z,20.29
2023-05-05T08:24:03.115Z,20.70
2023-05-05T08:27:27.446Z,21.33
2023-05-05T08:30:49.749Z,21.90
2023-05-05T08:34:11.346Z,21.35
2023-05-05T08:37:33.201Z,20.95
2023-05-05T08:40:59.582Z,21.12
2023-05-05T08:44:23.223Z,21.88
2023-05-05T08:47:45.136Z,21.95
2023-05-05T08:51:08.635Z,22.25
2023-05-05T08:54:33.676Z,22.12
2023-05-05T08:58:01.174Z,21.94
2023-05-05T09:01:25.240Z,22.26
2023-05-05T09:04:46.871Z,22.79
2023-05-05T09:08:09.706Z,23.07
2023-05-05T09:11:36.178Z,22.80
2023-05-05T09:14:59.400Z,22.73
2023-05-05T09:18:23.908Z,23.08
2023-05-05T09:21:51.296Z,23.66
2023-05-05T09:25:15.254Z,24.04
2023-05-05T09:28:37.491Z,23.69
2023-05-05T09:32:08.543Z,24.14
2023-05-05T09:35:52.772Z,23.31
2023-05-05T09:39:21.318Z,22.60
2023-05-05T09:42:44.759Z,22.63
2023-05-05T09:46:08.049Z,23.19
2023-05-05T09:49:30.742Z,23.80
2023-05-05T09:53:02.503Z,23.07
2023-05-05T09:56:40.667Z,23.03
2023-05-05T10:00:06.306Z,22.35
2023-05-05T10:03:28.140Z,22.16
2023-05-05T10:06:51.935Z,22.79
2023-05-05T10:10:18.339Z,23.11
2023-05-05T10:13:45.309Z,23.14
2023-05-05T10:17:12.011Z,23.17
2023-05-05T10:20:36.277Z,24.03
2023-05-05T10:24:06.966Z,24.16
2023-05-05T10:27:29.356Z,23.99
2023-05-05T10:30:54.468Z,24.65
2023-05-05T10:34:30.755Z,24.09
2023-05-05T10:37:55.138Z,24.37
2023-05-05T10:41:21.301Z,24.06
2023-05-05T10:44:45.479Z,24.89
2023-05-05T10:48:12.820Z,25.13
2023-05-05T10:51:41.316Z,25.20
2023-05-05T10:55:30.065Z,24.17
2023-05-05T10:59:00.030Z,24.25
2023-05-05T11:02:24.460Z,24.18
2023-05-05T11:06:04.262Z,24.30
2023-05-05T11:09:32.175Z,24.00
2023-05-05T11:13:03.012Z,24.34
2023-05-05T11:16:46.040Z,24.75
2023-05-05T11:20:10.715Z,24.35
2023-05-05T11:23:32.339Z,24.28
2023-05-05T11:26:56.198Z,24.18
2023-05-05T11:30:18.687Z,24.11
2023-05-05T11:33:40.562Z,24.25
2023-05-05T11:37:05.702Z,24.37
2023-05-05T11:40:32.493Z,25.00
2023-05-05T11:44:19.760Z,25.41
2023-05-05T11:47:43.532Z,25.82
2023-05-05T11:51:05.803Z,25.68
2023-05-05T11:54:28.176Z,24.95
2023-05-05T11:57:50.078Z,24.37
2023-05-05T12:01:13.366Z,24.11
2023-05-05T12:04:39.744Z,23.66
2023-05-05T12:08:01.485Z,23.62
2023-05-05T12:11:23.255Z,23.62
2023-05-05T12:14:53.418Z,23.27
2023-05-05T12:18:23.712Z,23.01
2023-05-05T12:21:45.753Z,22.94
2023-05-05T12:25:13.020Z,23.12
2023-05-05T12:28:48.510Z,23.55
2023-05-05T12:32:22.427Z,23.37
2023-05-05T12:35:46.809Z,23.70
2023-05-05T12:39:08.470Z,23.97
2023-05-05T12:42:30.119Z,24.22
2023-05-05T12:46:06.738Z,24.06
2023-05-05T12:49:28.490Z,23.79
2023-05-05T12:52:50.304Z,23.24
2023-05-05T12:56:30.614Z,23.24
2023-05-05T12:59:55.540Z,23.52
2023-05-05T13:03:21.152Z,23.35
2023-05-05T13:06:48.239Z,23.79
2023-05-05T13:10:13.193Z,24.00
2023-05-05T13:13:35.994Z,24.21
2023-05-05T13:16:57.709Z,24.17
2023-05-05T13:20:22.246Z,23.83
2023-05-05T13:23:44.978Z,23.92
2023-05-05T13:27:09.231Z,24.11
2023-05-05T13:30:30.843Z,24.28
2023-05-05T13:33:54.714Z,24.31
2023-05-05T13:37:18.746Z,24.48
2023-05-05T13:40:43.069Z,24.55
2023-05-05T13:44:04.750Z,24.78
2023-05-05T13:47:28.393Z,24.75
2023-05-05T13:50:52.241Z,24.95
2023-05-05T13:54:16.747Z,24.92
2023-05-05T13:57:38.398Z,24.89
2023-05-05T14:01:03.201Z,24.78
2023-05-05T14:04:25.276Z,24.11
2023-05-05T14:07:49.468Z,24.21
2023-05-05T14:11:14.090Z,24.16
2023-05-05T14:14:36.097Z,24.35
2023-05-05T14:17:57.955Z,24.37
2023-05-05T14:21:19.634Z,24.31
2023-05-05T14:24:46.487Z,23.90
2023-05-05T14:28:08.124Z,23.90
2023-05-05T14:31:34.667Z,23.99
2023-05-05T14:34:56.397Z,24.30
2023-05-05T14:38:18.149Z,24.32
2023-05-05T14:41:40.255Z,24.25
2023-05-05T14:45:03.642Z,24.28
2023-05-05T14:48:25.295Z,23.89
2023-05-05T14:51:49.052Z,23.77
2023-05-05T14:55:10.784Z,23.93
2023-05-05T14:58:32.792Z,24.01
2023-05-05T15:01:54.744Z,23.77
2023-05-05T15:05:16.788Z,23.86
2023-05-05T15:08:39.193Z,23.39
2023-05-05T15:12:03.399Z,23.39
2023-05-05T15:15:24.933Z,23.51
2023-05-05T15:18:46.694Z,23.28
2023-05-05T15:22:11.032Z,23.06
2023-05-05T15:25:34.885Z,23.22
2023-05-05T15:28:56.477Z,23.22
2023-05-05T15:32:20.348Z,23.28
2023-05-05T15:35:41.936Z,23.21
2023-05-05T15:39:06.185Z,23.14
2023-05-05T15:42:27.799Z,23.00
2023-05-05T15:45:49.552Z,22.91
2023-05-05T15:49:11.251Z,22.76
2023-05-05T15:52:37.670Z,22.71
2023-05-05T15:56:01.468Z,22.64
2023-05-05T15:59:23.052Z,22.67
2023-05-05T16:02:45.171Z,22.67
2023-05-05T16:06:07.469Z,22.66
2023-05-05T16:09:31.607Z,22.67
2023-05-05T16:12:53.290Z,22.57
2023-05-05T16:16:14.959Z,22.59
2023-05-05T16:19:36.577Z,22.57
2023-05-05T16:23:00.662Z,22.48
2023-05-05T16:26:22.300Z,22.38
2023-05-05T16:29:43.903Z,22.42
2023-05-05T16:33:06.884Z,22.46
2023-05-05T16:36:29.042Z,22.42
2023-05-05T16:39:50.747Z,22.36
2023-05-05T16:43:12.388Z,22.36
2023-05-05T16:46:37.462Z,22.43
2023-05-05T16:50:17.956Z,22.40
2023-05-05T16:53:40.110Z,22.39
2023-05-05T16:57:04.039Z,22.31
2023-05-05T17:00:25.780Z,22.32
2023-05-05T17:03:49.548Z,22.32
2023-05-05T17:07:11.447Z,22.28
2023-05-05T17:10:33.182Z,22.26
2023-05-05T17:13:54.774Z,22.15
2023-05-05T17:17:16.425Z,22.18
2023-05-05T17:20:38.106Z,22.05
2023-05-05T17:23:59.704Z,22.06
2023-05-05T17:27:21.331Z,22.00
2023-05-05T17:30:45.008Z,21.98
2023-05-05T17:34:09.338Z,21.91
2023-05-05T17:37:34.055Z,21.90
2023-05-05T17:40:55.750Z,21.81
2023-05-05T17:44:19.678Z,21.77
2023-05-05T17:47:43.870Z,21.75
2023-05-05T17:51:05.616Z,21.70
2023-05-05T17:54:27.446Z,21.60
2023-05-05T17:57:51.626Z,21.50
2023-05-05T18:01:25.994Z,21.42
2023-05-05T18:04:47.750Z,21.30
2023-05-05T18:08:12.183Z,21.12
2023-05-05T18:11:36.033Z,21.13
2023-05-05T18:15:00.555Z,20.89
2023-05-05T18:18:27.006Z,20.77
2023-05-05T18:21:52.499Z,20.65
2023-05-05T18:25:19.090Z,20.63
2023-05-05T18:28:40.706Z,20.50
2023-05-05T18:32:02.567Z,20.43
2023-05-05T18:35:26.410Z,20.37
2023-05-05T18:38:48.019Z,20.23
2023-05-05T18:42:09.629Z,19.97
2023-05-05T18:45:33.916Z,19.78
2023-05-05T18:48:55.688Z,19.68
2023-05-05T18:52:19.573Z,19.72
2023-05-05T18:55:42.981Z,19.71
2023-05-05T18:59:04.905Z,19.51
2023-05-05T19:02:26.680Z,19.58
2023-05-05T19:05:48.296Z,19.30
2023-05-05T19:09:10.933Z,19.28
2023-05-05T19:12:37.319Z,19.23
2023-05-05T19:15:59.182Z,19.28
2023-05-05T19:19:20.744Z,19.02
2023-05-05T19:22:45.780Z,18.95
2023-05-05T19:26:07.380Z,18.93
2023-05-05T19:29:32.144Z,18.58
2023-05-05T19:32:53.801Z,18.34
2023-05-05T19:36:15.541Z,18.31
2023-05-05T19:39:39.517Z,18.47
2023-05-05T19:43:01.186Z,18.11
2023-05-05T19:46:26.440Z,17.90
2023-05-05T19:49:48.083Z,18.00
2023-05-05T19:53:12.012Z,17.89
2023-05-05T19:56:33.608Z,17.96
2023-05-05T19:59:55.215Z,17.98
2023-05-05T20:03:19.204Z,17.93
2023-05-05T20:06:43.065Z,17.80
2023-05-05T20:10:08.304Z,17.80
2023-05-05T20:13:34.567Z,17.67
2023-05-05T20:17:01.035Z,17.48
2023-05-05T20:20:25.445Z,17.57
2023-05-05T20:23:47.452Z,17.48
2023-05-05T20:27:11.199Z,17.22
2023-05-05T20:30:32.815Z,17.12
2023-05-05T20:33:56.767Z,17.10
2023-05-05T20:37:21.905Z,17.25
2023-05-05T20:40:43.549Z,17.06
2023-05-05T20:44:05.285Z,16.90
2023-05-05T20:47:27.014Z,16.66
2023-05-05T20:50:48.711Z,16.70
2023-05-05T20:54:10.301Z,16.70
2023-05-05T20:57:32.013Z,16.77
2023-05-05T21:00:56.465Z,16.71
2023-05-05T21:04:20.827Z,16.66
2023-05-05T21:07:44.908Z,16.57
2023-05-05T21:11:10.284Z,16.69
2023-05-05T21:14:31.979Z,16.67
2023-05-05T21:17:53.713Z,16.70
2023-05-05T21:21:15.457Z,16.56
2023-05-05T21:24:39.085Z,16.40
2023-05-05T21:28:00.661Z,16.06
2023-05-05T21:31:24.358Z,16.18
2023-05-05T21:34:45.988Z,16.28
2023-05-05T21:38:08.306Z,16.16
2023-05-05T21:41:29.926Z,16.06
2023-05-05T21:44:51.595Z,15.91
2023-05-05T21:48:13.170Z,16.28
2023-05-05T21:51:34.976Z,16.00
2023-05-05T21:54:56.581Z,16.01
2023-05-05T21:58:23.006Z,15.74
2023-05-05T22:01:49.199Z,15.66
2023-05-05T22:05:10.965Z,15.74
2023-05-05T22:08:36.246Z,15.61
2023-05-05T22:11:57.906Z,15.56
2023-05-05T22:15:25.335Z,15.50
2023-05-05T22:18:49.411Z,15.44
2023-05-05T22:22:13.572Z,15.57
2023-05-05T22:25:35.676Z,15.53
2023-05-05T22:28:57.370Z,15.60
2023-05-05T22:32:23.783Z,15.44
2023-05-05T22:35:45.438Z,15.30
2023-05-05T22:39:09.438Z,15.36
2023-05-05T22:42:33.745Z,15.26
2023-05-05T22:45:55.432Z,15.46
2023-05-05T22:49:17.111Z,15.67
2023-05-05T22:52:38.760Z,15.43
2023-05-05T22:56:00.441Z,15.23
2023-05-05T22:59:22.457Z,15.22
2023-05-05T23:02:48.718Z,15.08
2023-05-05T23:06:10.398Z,15.15
2023-05-05T23:09:31.990Z,15.33
2023-05-05T23:12:58.512Z,15.25
2023-05-05T23:16:20.421Z,15.12
2023-05-05T23:19:44.454Z,15.23
2023-05-05T23:23:06.079Z,15.12
2023-05-05T23:26:30.278Z,15.23
2023-05-05T23:29:51.908Z,15.26
2023-05-05T23:33:13.624Z,15.30
2023-05-05T23:36:37.380Z,15.19
2023-05-05T23:39:58.967Z,14.79
2023-05-05T23:43:20.523Z,15.06
2023-05-05T23:46:42.261Z,14.79
2023-05-05T23:50:09.056Z,14.77
2023-05-05T23:53:32.992Z,14.68
2023-05-05T23:56:56.954Z,14.67
